createdAt,value
2018-05-03T00:15:24.558Z,6.37
2018-05-03T00:18:14.845Z,5.95
2018-05-03T00:23:43.003Z,5.50
2018-05-03T00:26:30.660Z,5.85
2018-05-03T00:32:05.455Z,6.18
2018-05-03T00:34:55.999Z,6.35
2018-05-03T00:42:55.118Z,6.40
2018-05-03T00:45:44.828Z,6.55
2018-05-03T00:48:47.380Z,5.90
2018-05-03T00:51:35.617Z,6.53
2018-05-03T00:54:41.076Z,5.80
2018-05-03T01:00:23.348Z,5.90
2018-05-03T01:11:58.616Z,7.20
2018-05-03T01:23:17.480Z,6.20
2018-05-03T01:25:56.971Z,6.35
2018-05-03T01:28:57.924Z,6.78
2018-05-03T01:32:01.572Z,6.65
2018-05-03T01:37:26.136Z,6.85
2018-05-03T01:40:04.238Z,8.07
2018-05-03T01:43:00.144Z,7.78
2018-05-03T01:45:46.974Z,7.95
2018-05-03T01:51:30.421Z,7.10
2018-05-03T01:54:15.603Z,7.25
2018-05-03T01:56:58.582Z,7.05
2018-05-03T01:59:44.164Z,7.50
2018-05-03T02:02:28.234Z,6.85
2018-05-03T02:05:09.201Z,8.20
2018-05-03T02:07:48.651Z,8.30
2018-05-03T02:10:25.613Z,7.70
2018-05-03T02:15:54.766Z,7.75
2018-05-03T02:18:41.299Z,8.32
2018-05-03T02:27:49.321Z,8.02
2018-05-03T02:33:13.717Z,8.18
2018-05-03T02:36:00.517Z,9.25
2018-05-03T02:38:41.940Z,8.30
2018-05-03T02:41:28.740Z,7.60
2018-05-03T02:44:29.174Z,8.35
2018-05-03T02:50:25.030Z,8.50
2018-05-03T02:53:02.628Z,7.70
2018-05-03T03:29:32.045Z,8.85
2018-05-03T03:39:08.388Z,9.40
2018-05-03T03:41:56.082Z,9.13
2018-05-03T03:44:50.004Z,8.88
2018-05-03T03:47:24.330Z,8.20
2018-05-03T03:50:19.636Z,9.25
2018-05-03T03:52:56.311Z,9.48
2018-05-03T03:55:34.658Z,8.05
2018-05-03T03:58:15.114Z,9.85
2018-05-03T04:00:52.066Z,9.05
2018-05-03T04:12:20.709Z,8.82
2018-05-03T04:14:56.455Z,10.43
2018-05-03T04:21:10.487Z,9.55
2018-05-03T04:24:26.635Z,9.85
2018-05-03T04:35:55.471Z,10.20
2018-05-03T04:38:29.493Z,9.93
2018-05-03T04:41:02.094Z,9.55
2018-05-03T04:43:38.034Z,10.25
2018-05-03T04:46:26.578Z,10.32
2018-05-03T04:48:57.756Z,9.85
2018-05-03T04:51:45.567Z,9.45
2018-05-03T05:08:15.012Z,8.40
2018-05-03T05:10:50.506Z,8.52
2018-05-03T05:13:31.209Z,8.75
2018-05-03T05:16:15.692Z,8.65
2018-05-03T05:18:51.283Z,9.35
2018-05-03T05:21:41.001Z,9.25
2018-05-03T05:24:26.831Z,9.95
2018-05-03T05:27:11.981Z,8.52
2018-05-03T05:30:01.193Z,8.35
2018-05-03T05:32:47.349Z,8.30
2018-05-03T05:41:09.730Z,9.38
2018-05-03T05:46:45.198Z,7.97
2018-05-03T05:49:26.105Z,9.60
2018-05-03T05:52:27.772Z,8.30
2018-05-03T05:55:19.379Z,8.40
2018-05-03T05:57:56.327Z,9.55
2018-05-03T06:00:38.084Z,7.82
2018-05-03T06:03:19.365Z,7.90
2018-05-03T06:11:43.521Z,9.13
2018-05-03T06:17:19.107Z,8.80
2018-05-03T06:26:13.453Z,8.15
2018-05-03T06:29:10.172Z,8.45
2018-05-03T06:37:29.683Z,6.75
2018-05-03T11:00:43.889Z,8.63
2018-05-03T11:03:14.197Z,9.57
2018-05-03T11:05:43.497Z,8.10
2018-05-03T11:08:12.810Z,8.93
2018-05-03T11:10:42.100Z,8.82
2018-05-03T11:13:12.183Z,9.68
2018-05-03T11:15:42.250Z,8.88
2018-05-03T11:18:11.561Z,8.80
2018-05-03T11:20:40.850Z,8.80
2018-05-03T11:23:10.163Z,8.05
2018-05-03T11:25:40.285Z,7.68
2018-05-03T11:28:09.587Z,8.57
2018-05-03T11:30:38.887Z,8.65
2018-05-03T11:33:08.190Z,7.22
2018-05-03T11:35:37.533Z,8.25
2018-05-03T11:38:06.831Z,8.45
2018-05-03T11:40:36.123Z,8.70
2018-05-03T11:43:06.133Z,7.75
2018-05-03T11:45:35.425Z,8.13
2018-05-03T11:48:04.725Z,7.47
2018-05-03T11:50:34.003Z,7.65
2018-05-03T11:53:03.304Z,8.07
2018-05-03T11:55:32.591Z,8.23
2018-05-03T11:58:01.969Z,8.00
2018-05-03T12:00:53.830Z,7.70
2018-05-03T12:28:16.191Z,7.87
2018-05-03T12:30:55.643Z,8.00
2018-05-03T12:33:34.591Z,8.18
2018-05-03T12:36:16.825Z,7.82
2018-05-03T12:38:50.568Z,7.80
2018-05-03T12:41:36.578Z,8.75
2018-05-03T12:44:17.005Z,8.23
2018-05-03T12:46:59.038Z,8.02
2018-05-03T12:55:21.296Z,7.72
2018-05-03T12:57:57.425Z,7.28
2018-05-03T13:09:11.918Z,7.75
2018-05-03T13:12:14.918Z,8.23
2018-05-03T13:15:00.661Z,9.30
2018-05-03T13:17:52.447Z,7.28
2018-05-03T13:20:27.581Z,9.50
2018-05-03T13:23:01.026Z,8.30
2018-05-03T13:25:36.997Z,9.18
2018-05-03T13:28:17.439Z,9.77
2018-05-03T13:30:51.755Z,9.70
2018-05-03T13:33:28.655Z,9.15
2018-05-03T13:38:43.938Z,9.88
2018-05-03T13:41:13.383Z,8.40
2018-05-03T13:43:42.708Z,8.85
2018-05-03T13:46:12.079Z,8.15
2018-05-03T13:48:42.703Z,8.18
2018-05-03T13:51:12.553Z,9.20
2018-05-03T13:53:42.686Z,8.50
2018-05-03T13:56:14.860Z,9.10
2018-05-03T13:58:44.952Z,9.45
2018-05-03T14:01:27.712Z,8.77
2018-05-03T14:06:56.953Z,9.15
2018-05-03T14:09:43.318Z,8.75
2018-05-03T14:12:25.990Z,9.30
2018-05-03T14:15:08.240Z,7.75
2018-05-03T14:17:46.429Z,8.85
2018-05-03T14:23:15.064Z,6.85
2018-05-03T14:25:54.168Z,7.65
2018-05-03T14:28:35.772Z,7.62
2018-05-03T14:31:24.414Z,7.70
2018-05-03T14:34:02.939Z,8.27
2018-05-03T14:36:45.122Z,8.02
2018-05-03T14:39:28.774Z,9.07
2018-05-03T14:42:19.835Z,8.40
2018-05-03T14:44:55.690Z,8.00
2018-05-03T14:47:36.300Z,7.90
2018-05-03T14:50:15.691Z,8.55
2018-05-03T14:52:53.728Z,8.40
2018-05-03T14:55:32.619Z,7.25
2018-05-03T15:00:57.847Z,6.30
2018-05-03T15:03:54.123Z,6.78
2018-05-03T15:09:22.336Z,7.05
2018-05-03T15:11:56.003Z,6.40
2018-05-03T15:14:26.000Z,6.00
2018-05-03T15:17:06.631Z,7.07
2018-05-03T15:19:37.734Z,6.82
2018-05-03T15:22:10.295Z,6.45
2018-05-03T15:24:39.876Z,6.70
2018-05-03T15:55:22.819Z,5.97
2018-05-03T15:58:00.090Z,5.57
2018-05-03T16:00:37.160Z,5.30
2018-05-03T16:03:14.312Z,5.55
2018-05-03T16:05:47.257Z,5.47
2018-05-03T16:08:21.723Z,6.20
2018-05-03T16:10:51.004Z,5.35
2018-05-03T16:13:20.307Z,5.65
2018-05-03T16:15:49.633Z,6.22
2018-05-03T16:18:21.545Z,5.05
2018-05-03T16:20:52.403Z,5.15
2018-05-03T16:23:23.780Z,5.43
2018-05-03T16:25:53.111Z,5.45
2018-05-03T16:28:22.451Z,5.47
2018-05-03T16:30:51.977Z,5.40
2018-05-03T16:33:21.390Z,5.28
2018-05-03T16:35:50.720Z,5.10
2018-05-03T16:38:20.076Z,4.97
2018-05-03T16:40:49.400Z,6.00
2018-05-03T16:43:18.684Z,4.80
2018-05-03T16:45:48.213Z,4.72
2018-05-03T16:48:17.604Z,4.65
2018-05-03T16:50:47.677Z,4.97
2018-05-03T16:53:17.027Z,5.20
2018-05-03T16:55:47.233Z,5.40
2018-05-03T16:58:17.620Z,6.05
2018-05-03T17:00:46.934Z,5.53
2018-05-03T17:03:16.727Z,4.95
2018-05-03T17:05:46.033Z,5.30
2018-05-03T17:08:15.323Z,5.65
2018-05-03T17:10:44.671Z,5.30
2018-05-03T17:13:14.168Z,4.65
2018-05-03T17:15:45.038Z,5.85
2018-05-03T17:18:14.708Z,6.10
2018-05-03T17:20:44.032Z,5.43
2018-05-03T17:23:13.332Z,5.60
2018-05-03T17:25:42.641Z,5.40
2018-05-03T17:28:11.958Z,5.30
2018-05-03T17:30:41.377Z,6.40
2018-05-03T17:33:10.678Z,5.07
2018-05-03T17:35:39.941Z,4.93
2018-05-03T17:38:09.250Z,5.37
2018-05-03T17:40:39.456Z,6.60
2018-05-03T17:43:08.791Z,5.30
2018-05-03T17:45:38.286Z,5.40
2018-05-03T17:48:07.635Z,5.07
2018-05-03T17:50:37.019Z,4.97
2018-05-03T17:53:06.341Z,5.60
2018-05-03T17:55:35.641Z,5.05
2018-05-03T17:58:04.950Z,5.10
2018-05-03T18:00:34.284Z,5.20
2018-05-03T18:03:04.674Z,5.10
2018-05-03T18:05:34.795Z,5.12
2018-05-03T18:08:04.121Z,4.90
2018-05-03T18:10:33.459Z,6.10
2018-05-03T18:13:03.469Z,5.40
2018-05-03T18:15:32.778Z,5.05
2018-05-03T18:18:02.095Z,4.95
2018-05-03T18:20:31.399Z,5.00
2018-05-03T18:23:00.732Z,5.28
2018-05-03T18:25:30.085Z,4.85
2018-05-03T18:27:59.551Z,5.00
2018-05-03T18:30:30.801Z,4.80
2018-05-03T18:33:00.174Z,5.22
2018-05-03T18:35:31.186Z,5.20
2018-05-03T18:38:03.307Z,4.35
2018-05-03T18:40:35.210Z,5.30
2018-05-03T18:43:07.642Z,5.12
2018-05-03T18:45:37.033Z,5.03
2018-05-03T18:48:06.565Z,4.95
2018-05-03T18:50:36.686Z,4.62
2018-05-03T18:53:08.127Z,4.37
2018-05-03T18:55:39.728Z,5.12
2018-05-03T18:58:12.801Z,5.05
2018-05-03T19:00:42.224Z,5.15
2018-05-03T19:03:12.594Z,5.28
2018-05-03T19:05:42.733Z,4.87
2018-05-03T19:08:13.520Z,5.25
2018-05-03T19:10:42.868Z,5.25
2018-05-03T19:13:16.159Z,5.60
2018-05-03T19:15:46.311Z,5.47
2018-05-03T19:18:15.666Z,5.47
2018-05-03T19:20:46.107Z,6.25
2018-05-03T19:23:16.863Z,5.50
2018-05-03T19:25:46.152Z,5.10
2018-05-03T19:28:20.075Z,5.50
2018-05-03T19:30:50.317Z,5.37
2018-05-03T19:33:19.929Z,6.15
2018-05-03T19:35:54.820Z,6.43
2018-05-03T19:38:25.746Z,5.47
2018-05-03T19:40:55.023Z,6.25
2018-05-03T19:43:24.321Z,6.20
2018-05-03T19:45:53.619Z,6.65
2018-05-03T19:48:22.915Z,5.87
2018-05-03T19:50:52.243Z,6.65
2018-05-03T19:53:21.550Z,5.87
2018-05-03T19:55:50.850Z,6.40
2018-05-03T19:58:20.149Z,5.68
2018-05-03T20:00:50.234Z,6.75
2018-05-03T20:03:19.568Z,5.62
2018-05-03T20:05:48.881Z,5.72
2018-05-03T20:08:18.260Z,5.40
2018-05-03T20:10:47.485Z,5.87
2018-05-03T20:13:17.553Z,5.20
2018-05-03T20:15:46.884Z,5.78
2018-05-03T20:18:16.963Z,5.75
2018-05-03T20:20:46.341Z,5.90
2018-05-03T20:23:15.624Z,5.30
2018-05-03T20:25:44.948Z,6.10
2018-05-03T20:28:14.232Z,6.05
2018-05-03T20:30:44.401Z,6.18
2018-05-03T20:33:13.707Z,5.82
2018-05-03T20:35:43.078Z,5.87
2018-05-03T20:38:12.353Z,5.90
2018-05-03T20:40:42.511Z,5.40
2018-05-03T20:43:11.846Z,4.82
2018-05-03T20:45:41.231Z,5.70
2018-05-03T20:48:10.499Z,5.30
2018-05-03T20:50:40.367Z,5.57
2018-05-03T20:53:09.818Z,4.95
2018-05-03T20:55:39.102Z,5.60
2018-05-03T20:58:09.358Z,5.75
2018-05-03T21:00:38.682Z,6.30
2018-05-03T21:03:08.054Z,5.72
2018-05-03T21:05:38.267Z,6.15
2018-05-03T21:08:07.572Z,5.60
2018-05-03T21:10:37.095Z,4.95
2018-05-03T21:13:06.453Z,6.25
2018-05-03T21:15:35.777Z,5.57
2018-05-03T21:18:05.236Z,5.40
2018-05-03T21:20:34.635Z,5.50
2018-05-03T21:23:03.934Z,5.87
2018-05-03T21:25:33.230Z,5.80
2018-05-03T21:28:02.577Z,5.25
2018-05-03T21:30:31.889Z,5.93
2018-05-03T21:33:01.186Z,4.82
2018-05-03T21:35:30.512Z,5.80
2018-05-03T21:37:59.927Z,5.70
2018-05-03T21:40:29.206Z,5.07
2018-05-03T21:42:58.515Z,5.30
2018-05-03T21:45:27.815Z,5.45
2018-05-03T21:47:57.130Z,5.40
2018-05-03T21:50:26.414Z,5.35
2018-05-03T21:52:55.732Z,5.30
2018-05-03T21:55:25.030Z,4.65
2018-05-03T21:57:54.323Z,5.43
2018-05-03T22:00:23.629Z,6.10
2018-05-03T22:02:52.921Z,6.12
2018-05-03T22:05:22.964Z,5.90
2018-05-03T22:07:52.255Z,5.37
2018-05-03T22:10:21.534Z,5.55
2018-05-03T22:12:50.834Z,5.50
2018-05-03T22:15:20.156Z,6.70
2018-05-03T22:17:49.438Z,5.95
2018-05-03T22:20:18.735Z,5.70
2018-05-03T22:22:48.031Z,5.85
2018-05-03T22:25:17.306Z,6.30
2018-05-03T22:27:46.628Z,5.40
2018-05-03T22:30:15.923Z,6.07
2018-05-03T22:32:45.221Z,5.70
2018-05-03T22:35:14.508Z,6.85
2018-05-03T22:37:43.822Z,5.90
2018-05-03T22:40:14.091Z,6.30
2018-05-03T22:42:43.388Z,5.80
2018-05-03T22:45:12.676Z,5.65
2018-05-03T22:47:41.969Z,5.75
2018-05-03T22:50:11.253Z,5.53
2018-05-03T22:52:41.325Z,6.15
2018-05-03T22:55:11.391Z,5.72
2018-05-03T22:57:40.666Z,8.05
2018-05-03T23:00:09.972Z,7.65
2018-05-03T23:02:38.955Z,8.60
2018-05-03T23:05:08.255Z,10.18
2018-05-03T23:07:37.702Z,10.52
2018-05-03T23:10:07.001Z,11.07
2018-05-03T23:12:36.312Z,11.12
2018-05-03T23:15:05.610Z,10.02
2018-05-03T23:17:34.906Z,10.30
2018-05-03T23:20:04.206Z,11.57
2018-05-03T23:22:33.539Z,10.60
2018-05-03T23:25:03.599Z,11.23
2018-05-03T23:27:32.898Z,11.00
2018-05-03T23:30:02.180Z,10.80
2018-05-03T23:32:31.501Z,12.60
2018-05-03T23:35:00.813Z,11.12
2018-05-03T23:37:30.125Z,11.18
2018-05-03T23:39:59.410Z,11.05
2018-05-03T23:42:28.705Z,10.30
2018-05-03T23:44:58.015Z,9.85
2018-05-03T23:47:27.310Z,9.88
2018-05-03T23:49:56.620Z,9.27
2018-05-03T23:52:25.896Z,9.55
2018-05-03T23:54:55.181Z,8.20
2018-05-03T23:57:24.483Z,7.60
2018-05-03T23:59:53.801Z,7.80
